sensor_id;sensor_type;location;lat;lon;timestamp;pressure;altitude;pressure_sealevel;temperature;humidity
16194;BME280;8204;53.582;10.080;2023-03-13T14:55:34;98675.72;;;19.38;100.00
16194;BME280;8204;53.582;10.080;2023-03-13T14:58:25;98678.34;;;19.23;100.00
16194;BME280;8204;53.582;10.080;2023-03-13T15:00:56;98699.31;;;19.15;100.00
16194;BME280;8204;53.582;10.080;2023-03-13T15:03:31;98684.09;;;19.01;100.00
16194;BME280;8204;53.582;10.080;2023-03-13T15:06:06;98660.19;;;19.01;100.00
16194;BME280;8204;53.582;10.080;2023-03-13T15:08:37;98667.09;;;18.97;100.00
16194;BME280;8204;53.582;10.080;2023-03-13T15:11:20;98662.84;;;18.81;100.00
16194;BME280;8204;53.582;10.080;2023-03-13T15:13:49;98646.59;;;18.67;100.00
16194;BME280;8204;53.582;10.080;2023-03-13T15:16:19;98655.09;;;18.64;100.00
16194;BME280;8204;53.582;10.080;2023-03-13T15:18:49;98642.59;;;18.65;100.00
16194;BME280;8204;53.582;10.080;2023-03-13T15:21:26;98668.94;;;18.91;100.00
16194;BME280;8204;53.582;10.080;2023-03-13T15:23:59;98639.78;;;18.96;100.00
16194;BME280;8204;53.582;10.080;2023-03-13T15:26:31;98641.38;;;18.97;100.00
16194;BME280;8204;53.582;10.080;2023-03-13T15:29:01;98638.13;;;18.85;100.00
16194;BME280;8204;53.582;10.080;2023-03-13T15:31:29;98651.38;;;18.70;100.00
16194;BME280;8204;53.582;10.080;2023-03-13T15:34:00;98659.88;;;18.72;100.00
16194;BME280;8204;53.582;10.080;2023-03-13T15:36:30;98647.13;;;18.64;100.00
16194;BME280;8204;53.582;10.080;2023-03-13T15:38:59;98629.56;;;18.53;100.00
16194;BME280;8204;53.582;10.080;2023-03-13T15:41:32;98642.81;;;18.48;100.00
16194;BME280;8204;53.582;10.080;2023-03-13T15:44:01;98637.50;;;18.43;100.00
16194;BME280;8204;53.582;10.080;2023-03-13T15:46:30;98619.69;;;18.39;100.00
16194;BME280;8204;53.582;10.080;2023-03-13T15:48:59;98622.63;;;18.42;100.00
16194;BME280;8204;53.582;10.080;2023-03-13T15:51:28;98620.53;;;18.44;100.00
16194;BME280;8204;53.582;10.080;2023-03-13T15:53:58;98607.50;;;18.38;100.00
16194;BME280;8204;53.582;10.080;2023-03-13T15:56:33;98599.09;;;18.61;100.00
16194;BME280;8204;53.582;10.080;2023-03-13T15:59:08;98600.44;;;18.78;100.00
16194;BME280;8204;53.582;10.080;2023-03-13T16:01:38;98594.84;;;18.75;100.00
16194;BME280;8204;53.582;10.080;2023-03-13T16:04:08;98584.75;;;18.62;100.00
16194;BME280;8204;53.582;10.080;2023-03-13T16:06:38;98594.56;;;18.61;100.00
16194;BME280;8204;53.582;10.080;2023-03-13T16:09:07;98602.84;;;18.80;100.00
16194;BME280;8204;53.582;10.080;2023-03-13T16:11:38;98582.97;;;19.02;100.00
16194;BME280;8204;53.582;10.080;2023-03-13T16:14:07;98588.31;;;19.17;100.00
16194;BME280;8204;53.582;10.080;2023-03-13T16:16:38;98589.09;;;19.27;100.00
16194;BME280;8204;53.582;10.080;2023-03-13T16:19:08;98579.03;;;19.39;100.00
16194;BME280;8204;53.582;10.080;2023-03-13T16:21:38;98575.56;;;19.44;100.00
16194;BME280;8204;53.582;10.080;2023-03-13T16:24:13;98581.69;;;19.29;100.00
16194;BME280;8204;53.582;10.080;2023-03-13T16:26:45;98592.81;;;19.06;100.00
16194;BME280;8204;53.582;10.080;2023-03-13T16:29:15;98581.94;;;19.13;100.00
16194;BME280;8204;53.582;10.080;2023-03-13T16:31:44;98579.22;;;18.98;100.00
16194;BME280;8204;53.582;10.080;2023-03-13T16:34:13;98579.25;;;18.88;100.00
16194;BME280;8204;53.582;10.080;2023-03-13T16:36:42;98581.06;;;18.83;100.00
16194;BME280;8204;53.582;10.080;2023-03-13T16:39:13;98569.66;;;18.72;100.00
16194;BME280;8204;53.582;10.080;2023-03-13T16:41:45;98585.03;;;18.65;100.00
16194;BME280;8204;53.582;10.080;2023-03-13T16:44:15;98579.44;;;18.52;100.00
16194;BME280;8204;53.582;10.080;2023-03-13T16:46:44;98585.50;;;18.37;100.00
16194;BME280;8204;53.582;10.080;2023-03-13T16:49:13;98583.88;;;18.32;100.00
16194;BME280;8204;53.582;10.080;2023-03-13T16:51:43;98591.28;;;18.25;100.00
16194;BME280;8204;53.582;10.080;2023-03-13T16:54:12;98592.78;;;18.11;100.00
16194;BME280;8204;53.582;10.080;2023-03-13T16:56:41;98599.09;;;18.05;100.00
16194;BME280;8204;53.582;10.080;2023-03-13T16:59:14;98585.03;;;17.99;100.00
16194;BME280;8204;53.582;10.080;2023-03-13T17:01:44;98574.63;;;17.88;100.00
16194;BME280;8204;53.582;10.080;2023-03-13T17:04:14;98571.16;;;17.82;100.00
16194;BME280;8204;53.582;10.080;2023-03-13T17:06:42;98570.38;;;17.87;100.00
16194;BME280;8204;53.582;10.080;2023-03-13T17:09:15;98587.28;;;17.81;100.00
16194;BME280;8204;53.582;10.080;2023-03-13T17:11:44;98569.25;;;17.73;100.00
16194;BME280;8204;53.582;10.080;2023-03-13T17:14:16;98567.66;;;17.72;100.00
16194;BME280;8204;53.582;10.080;2023-03-13T17:16:45;98552.50;;;17.62;100.00
16194;BME280;8204;53.582;10.080;2023-03-13T17:19:14;98562.00;;;17.58;100.00
16194;BME280;8204;53.582;10.080;2023-03-13T17:21:43;98567.06;;;17.60;100.00
16194;BME280;8204;53.582;10.080;2023-03-13T17:24:12;98570.69;;;17.49;100.00
16194;BME280;8204;53.582;10.080;2023-03-13T17:26:42;98556.69;;;17.54;100.00
16194;BME280;8204;53.582;10.080;2023-03-13T17:29:16;98553.75;;;17.55;100.00
16194;BME280;8204;53.582;10.080;2023-03-13T17:31:46;98553.53;;;17.57;100.00
16194;BME280;8204;53.582;10.080;2023-03-13T17:34:15;98561.13;;;17.48;100.00
16194;BME280;8204;53.582;10.080;2023-03-13T17:36:44;98555.78;;;17.38;100.00
16194;BME280;8204;53.582;10.080;2023-03-13T17:39:14;98555.84;;;17.48;100.00
16194;BME280;8204;53.582;10.080;2023-03-13T17:41:43;98545.47;;;17.42;100.00
16194;BME280;8204;53.582;10.080;2023-03-13T17:44:12;98565.78;;;17.31;100.00
16194;BME280;8204;53.582;10.080;2023-03-13T17:46:44;98550.34;;;17.23;100.00
16194;BME280;8204;53.582;10.080;2023-03-13T17:49:16;98563.28;;;17.20;100.00
16194;BME280;8204;53.582;10.080;2023-03-13T17:51:45;98561.44;;;17.20;100.00
16194;BME280;8204;53.582;10.080;2023-03-13T17:54:16;98564.09;;;17.20;100.00
16194;BME280;8204;53.582;10.080;2023-03-13T17:56:45;98566.19;;;17.18;100.00
16194;BME280;8204;53.582;10.080;2023-03-13T17:59:17;98578.66;;;17.23;100.00
16194;BME280;8204;53.582;10.080;2023-03-13T18:01:48;98573.06;;;17.14;100.00
16194;BME280;8204;53.582;10.080;2023-03-13T18:04:17;98569.31;;;17.15;100.00
16194;BME280;8204;53.582;10.080;2023-03-13T18:06:46;98563.97;;;17.05;100.00
16194;BME280;8204;53.582;10.080;2023-03-13T18:09:18;98561.88;;;17.07;100.00
16194;BME280;8204;53.582;10.080;2023-03-13T18:11:48;98580.84;;;16.99;100.00
16194;BME280;8204;53.582;10.080;2023-03-13T18:14:18;98590.59;;;16.94;100.00
16194;BME280;8204;53.582;10.080;2023-03-13T18:16:50;98584.16;;;16.85;100.00
16194;BME280;8204;53.582;10.080;2023-03-13T18:19:23;98586.50;;;16.82;100.00
16194;BME280;8204;53.582;10.080;2023-03-13T18:21:54;98594.38;;;16.77;100.00
16194;BME280;8204;53.582;10.080;2023-03-13T18:24:23;98593.28;;;16.73;100.00
16194;BME280;8204;53.582;10.080;2023-03-13T18:26:52;98592.00;;;16.75;100.00
16194;BME280;8204;53.582;10.080;2023-03-13T18:29:22;98597.53;;;16.74;100.00
16194;BME280;8204;53.582;10.080;2023-03-13T18:31:58;98594.06;;;16.73;100.00
16194;BME280;8204;53.582;10.080;2023-03-13T18:34:28;98585.63;;;16.71;100.00
16194;BME280;8204;53.582;10.080;2023-03-13T18:36:58;98607.56;;;16.72;100.00
16194;BME280;8204;53.582;10.080;2023-03-13T18:39:29;98602.66;;;16.59;100.00
16194;BME280;8204;53.582;10.080;2023-03-13T18:41:58;98605.03;;;16.60;100.00
16194;BME280;8204;53.582;10.080;2023-03-13T18:44:28;98606.56;;;16.51;100.00
16194;BME280;8204;53.582;10.080;2023-03-13T18:47:00;98613.97;;;16.54;100.00
16194;BME280;8204;53.582;10.080;2023-03-13T18:49:28;98620.00;;;16.50;100.00
16194;BME280;8204;53.582;10.080;2023-03-13T18:51:57;98620.47;;;16.42;100.00
16194;BME280;8204;53.582;10.080;2023-03-13T18:54:26;98612.00;;;16.45;100.00
16194;BME280;8204;53.582;10.080;2023-03-13T18:56:55;98617.25;;;16.40;100.00
16194;BME280;8204;53.582;10.080;2023-03-13T18:59:24;98633.44;;;16.27;100.00
16194;BME280;8204;53.582;10.080;2023-03-13T19:01:54;98627.16;;;16.28;100.00
16194;BME280;8204;53.582;10.080;2023-03-13T19:04:25;98638.69;;;16.22;100.00
16194;BME280;8204;53.582;10.080;2023-03-13T19:06:54;98639.78;;;16.26;100.00
16194;BME280;8204;53.582;10.080;2023-03-13T19:09:23;98647.09;;;16.19;100.00
16194;BME280;8204;53.582;10.080;2023-03-13T19:11:52;98638.69;;;16.22;100.00
16194;BME280;8204;53.582;10.080;2023-03-13T19:14:21;98657.59;;;16.14;100.00
16194;BME280;8204;53.582;10.080;2023-03-13T19:16:52;98647.59;;;16.16;100.00
16194;BME280;8204;53.582;10.080;2023-03-13T19:19:25;98649.41;;;16.15;100.00
16194;BME280;8204;53.582;10.080;2023-03-13T19:21:54;98652.16;;;16.04;100.00
16194;BME280;8204;53.582;10.080;2023-03-13T19:24:23;98659.84;;;16.06;100.00
16194;BME280;8204;53.582;10.080;2023-03-13T19:26:54;98659.59;;;16.07;100.00
16194;BME280;8204;53.582;10.080;2023-03-13T19:29:26;98652.78;;;16.11;100.00
16194;BME280;8204;53.582;10.080;2023-03-13T19:31:58;98651.69;;;16.07;100.00
16194;BME280;8204;53.582;10.080;2023-03-13T19:34:32;98645.41;;;16.13;100.00
16194;BME280;8204;53.582;10.080;2023-03-13T19:37:01;98647.19;;;16.07;100.00
16194;BME280;8204;53.582;10.080;2023-03-13T19:39:30;98639.25;;;16.07;100.00
16194;BME280;8204;53.582;10.080;2023-03-13T19:41:59;98651.22;;;16.10;100.00
16194;BME280;8204;53.582;10.080;2023-03-13T19:44:31;98644.31;;;16.09;100.00
16194;BME280;8204;53.582;10.080;2023-03-13T19:47:02;98641.91;;;16.07;100.00
16194;BME280;8204;53.582;10.080;2023-03-13T19:49:34;98654.31;;;16.07;100.00
16194;BME280;8204;53.582;10.080;2023-03-13T19:52:03;98659.13;;;16.10;100.00
16194;BME280;8204;53.582;10.080;2023-03-13T19:54:32;98660.97;;;16.09;100.00
16194;BME280;8204;53.582;10.080;2023-03-13T19:57:01;98656.00;;;16.13;100.00
16194;BME280;8204;53.582;10.080;2023-03-13T19:59:30;98650.06;;;16.06;100.00
16194;BME280;8204;53.582;10.080;2023-03-13T20:02:00;98644.78;;;16.06;100.00
16194;BME280;8204;53.582;10.080;2023-03-13T20:04:33;98643.19;;;16.05;100.00
16194;BME280;8204;53.582;10.080;2023-03-13T20:07:03;98644.78;;;16.06;100.00
16194;BME280;8204;53.582;10.080;2023-03-13T20:09:33;98635.72;;;15.97;100.00
16194;BME280;8204;53.582;10.080;2023-03-13T20:12:03;98625.38;;;15.96;100.00
16194;BME280;8204;53.582;10.080;2023-03-13T20:14:32;98618.41;;;15.90;100.00
16194;BME280;8204;53.582;10.080;2023-03-13T20:17:01;98616.28;;;15.87;100.00
16194;BME280;8204;53.582;10.080;2023-03-13T20:19:31;98618.81;;;15.82;100.00
16194;BME280;8204;53.582;10.080;2023-03-13T20:22:02;98600.53;;;15.75;100.00
16194;BME280;8204;53.582;10.080;2023-03-13T20:24:34;98601.56;;;15.74;100.00
16194;BME280;8204;53.582;10.080;2023-03-13T20:27:04;98601.81;;;15.73;100.00
16194;BME280;8204;53.582;10.080;2023-03-13T20:29:32;98617.34;;;15.69;100.00
16194;BME280;8204;53.582;10.080;2023-03-13T20:32:03;98612.53;;;15.66;100.00
16194;BME280;8204;53.582;10.080;2023-03-13T20:34:33;98606.47;;;15.66;100.00
16194;BME280;8204;53.582;10.080;2023-03-13T20:37:05;98613.75;;;15.59;100.00
16194;BME280;8204;53.582;10.080;2023-03-13T20:39:34;98613.44;;;15.55;100.00
16194;BME280;8204;53.582;10.080;2023-03-13T20:42:03;98607.06;;;15.51;100.00
16194;BME280;8204;53.582;10.080;2023-03-13T20:44:34;98606.94;;;15.46;100.00
16194;BME280;8204;53.582;10.080;2023-03-13T20:47:03;98611.59;;;15.39;100.00
16194;BME280;8204;53.582;10.080;2023-03-13T20:49:33;98602.56;;;15.35;100.00
16194;BME280;8204;53.582;10.080;2023-03-13T20:52:08;98589.84;;;15.32;100.00
16194;BME280;8204;53.582;10.080;2023-03-13T20:54:37;98576.88;;;15.31;100.00
16194;BME280;8204;53.582;10.080;2023-03-13T20:57:09;98580.25;;;15.27;100.00
16194;BME280;8204;53.582;10.080;2023-03-13T20:59:37;98575.13;;;15.20;100.00
16194;BME280;8204;53.582;10.080;2023-03-13T21:02:09;98575.56;;;15.17;100.00
16194;BME280;8204;53.582;10.080;2023-03-13T21:04:38;98585.81;;;15.14;100.00
16194;BME280;8204;53.582;10.080;2023-03-13T21:07:10;98576.00;;;15.09;100.00
16194;BME280;8204;53.582;10.080;2023-03-13T21:09:38;98575.56;;;15.01;100.00
16194;BME280;8204;53.582;10.080;2023-03-13T21:12:07;98570.28;;;15.01;100.00
16194;BME280;8204;53.582;10.080;2023-03-13T21:14:36;98567.00;;;14.94;100.00
16194;BME280;8204;53.582;10.080;2023-03-13T21:17:05;98561.53;;;14.95;100.00
16194;BME280;8204;53.582;10.080;2023-03-13T21:19:35;98562.81;;;14.93;100.00
16194;BME280;8204;53.582;10.080;2023-03-13T21:22:04;98568.22;;;14.86;100.00
16194;BME280;8204;53.582;10.080;2023-03-13T21:24:35;98579.53;;;14.87;100.00
16194;BME280;8204;53.582;10.080;2023-03-13T21:27:05;98582.75;;;14.89;100.00
16194;BME280;8204;53.582;10.080;2023-03-13T21:29:33;98574.59;;;14.90;100.00
16194;BME280;8204;53.582;10.080;2023-03-13T21:32:02;98582.75;;;14.89;100.00
16194;BME280;8204;53.582;10.080;2023-03-13T21:34:31;98579.66;;;14.92;100.00
16194;BME280;8204;53.582;10.080;2023-03-13T21:37:00;98570.06;;;14.86;100.00
16194;BME280;8204;53.582;10.080;2023-03-13T21:39:29;98579.78;;;14.85;100.00
16194;BME280;8204;53.582;10.080;2023-03-13T21:42:00;98575.81;;;14.83;100.00
16194;BME280;8204;53.582;10.080;2023-03-13T21:44:29;98578.44;;;14.83;100.00
16194;BME280;8204;53.582;10.080;2023-03-13T21:46:58;98574.69;;;14.79;100.00
16194;BME280;8204;53.582;10.080;2023-03-13T21:49:28;98570.91;;;14.75;100.00
16194;BME280;8204;53.582;10.080;2023-03-13T21:51:57;98572.44;;;14.71;100.00
16194;BME280;8204;53.582;10.080;2023-03-13T21:54:26;98564.97;;;14.68;100.00
16194;BME280;8204;53.582;10.080;2023-03-13T21:56:55;98544.84;;;14.62;100.00
16194;BME280;8204;53.582;10.080;2023-03-13T21:59:26;98529.03;;;14.62;100.00
16194;BME280;8204;53.582;10.080;2023-03-13T22:01:57;98516.88;;;14.61;100.00
16194;BME280;8204;53.582;10.080;2023-03-13T22:04:26;98513.00;;;14.63;100.00
16194;BME280;8204;53.582;10.080;2023-03-13T22:06:55;98509.53;;;14.63;100.00
16194;BME280;8204;53.582;10.080;2023-03-13T22:09:24;98508.50;;;14.64;100.00
16194;BME280;8204;53.582;10.080;2023-03-13T22:11:52;98492.63;;;14.59;100.00
16194;BME280;8204;53.582;10.080;2023-03-13T22:14:21;98485.25;;;14.61;100.00
16194;BME280;8204;53.582;10.080;2023-03-13T22:16:54;98477.84;;;14.58;100.00
16194;BME280;8204;53.582;10.080;2023-03-13T22:19:23;98466.81;;;14.61;100.00
16194;BME280;8204;53.582;10.080;2023-03-13T22:21:52;98462.03;;;14.58;100.00
16194;BME280;8204;53.582;10.080;2023-03-13T22:24:20;98449.63;;;14.58;100.00
16194;BME280;8204;53.582;10.080;2023-03-13T22:26:50;98441.50;;;14.60;100.00
16194;BME280;8204;53.582;10.080;2023-03-13T22:29:18;98449.41;;;14.60;100.00
16194;BME280;8204;53.582;10.080;2023-03-13T22:31:48;98434.38;;;14.60;100.00
16194;BME280;8204;53.582;10.080;2023-03-13T22:34:20;98426.63;;;14.54;100.00
16194;BME280;8204;53.582;10.080;2023-03-13T22:36:49;98433.03;;;14.58;100.00
16194;BME280;8204;53.582;10.080;2023-03-13T22:39:18;98431.44;;;14.57;100.00
16194;BME280;8204;53.582;10.080;2023-03-13T22:41:46;98428.53;;;14.58;100.00
16194;BME280;8204;53.582;10.080;2023-03-13T22:44:15;98426.94;;;14.57;100.00
16194;BME280;8204;53.582;10.080;2023-03-13T22:46:47;98407.06;;;14.50;100.00
16194;BME280;8204;53.582;10.080;2023-03-13T22:49:16;98401.22;;;14.48;100.00
16194;BME280;8204;53.582;10.080;2023-03-13T22:51:47;98384.72;;;14.36;100.00
16194;BME280;8204;53.582;10.080;2023-03-13T22:54:16;98374.81;;;14.43;100.00
16194;BME280;8204;53.582;10.080;2023-03-13T22:56:45;98356.69;;;14.47;100.00
16194;BME280;8204;53.582;10.080;2023-03-13T22:59:14;98348.78;;;14.47;100.00
16194;BME280;8204;53.582;10.080;2023-03-13T23:01:42;98324.44;;;14.40;100.00
16194;BME280;8204;53.582;10.080;2023-03-13T23:04:11;98311.56;;;14.43;100.00
16194;BME280;8204;53.582;10.080;2023-03-13T23:06:40;98303.09;;;14.41;100.00
16194;BME280;8204;53.582;10.080;2023-03-13T23:09:12;98283.56;;;14.37;100.00
16194;BME280;8204;53.582;10.080;2023-03-13T23:11:40;98270.94;;;14.39;100.00
16194;BME280;8204;53.582;10.080;2023-03-13T23:14:09;98254.50;;;14.32;100.00
16194;BME280;8204;53.582;10.080;2023-03-13T23:16:38;98255.59;;;14.36;100.00
16194;BME280;8204;53.582;10.080;2023-03-13T23:19:07;98233.25;;;14.39;100.00
16194;BME280;8204;53.582;10.080;2023-03-13T23:21:36;98233.75;;;14.36;100.00
16194;BME280;8204;53.582;10.080;2023-03-13T23:24:06;98227.66;;;14.35;100.00
16194;BME280;8204;53.582;10.080;2023-03-13T23:26:38;98225.84;;;14.36;100.00
16194;BME280;8204;53.582;10.080;2023-03-13T23:29:07;98228.94;;;14.33;100.00
16194;BME280;8204;53.582;10.080;2023-03-13T23:31:36;98228.16;;;14.32;100.00
16194;BME280;8204;53.582;10.080;2023-03-13T23:34:05;98229.13;;;14.26;100.00
16194;BME280;8204;53.582;10.080;2023-03-13T23:36:34;98231.22;;;14.24;100.00
16194;BME280;8204;53.582;10.080;2023-03-13T23:39:03;98236.78;;;14.28;100.00
16194;BME280;8204;53.582;10.080;2023-03-13T23:41:32;98251.25;;;14.25;100.00
16194;BME280;8204;53.582;10.080;2023-03-13T23:44:03;98241.50;;;14.26;100.00
16194;BME280;8204;53.582;10.080;2023-03-13T23:46:32;98221.44;;;14.08;100.00
16194;BME280;8204;53.582;10.080;2023-03-13T23:49:02;98217.66;;;14.16;100.00
16194;BME280;8204;53.582;10.080;2023-03-13T23:51:31;98216.19;;;14.08;100.00
16194;BME280;8204;53.582;10.080;2023-03-13T23:54:00;98192.75;;;14.07;100.00
16194;BME280;8204;53.582;10.080;2023-03-13T23:56:29;98178.53;;;14.08;100.00
16194;BME280;8204;53.582;10.080;2023-03-13T23:58:58;98182.44;;;14.05;100.00
